Time;durP1;ratioP1;P1;durP2;ratioP2;P2;SDS_P1;SDS_P2;PMS_P1;PMS_P2;Temp;Humidity;BMP_temperature;BMP_pressure;BME280_temperature;BME280_humidity;BME280_pressure;Samples;Min_cycle;Max_cycle;Signal;HPM_P1;HPM_P2
2022/09/11 00:00:35;;;;;;;16.87;14.95;;;;;;;13.37;100.00;98353.89;2249522;78;20979;-82
2022/09/11 00:03:36;;;;;;;16.93;15.23;;;;;;;13.37;100.00;98356.07;2249009;78;20940;-81
2022/09/11 00:06:37;;;;;;;16.32;14.53;;;;;;;13.39;100.00;98356.06;2249019;79;20963;-81
2022/09/11 00:09:36;;;;;;;17.92;15.83;;;;;;;13.38;100.00;98352.57;2249091;78;20924;-81
2022/09/11 00:12:37;;;;;;;16.62;15.03;;;;;;;13.38;100.00;98353.88;2248478;78;20991;-81
2022/09/11 00:15:37;;;;;;;16.25;14.65;;;;;;;13.36;100.00;98359.58;2248675;79;21401;-82
2022/09/11 00:18:38;;;;;;;18.73;16.73;;;;;;;13.36;100.00;98356.95;2249012;78;20920;-81
2022/09/11 00:21:38;;;;;;;18.77;16.65;;;;;;;13.38;100.00;98356.50;2249219;79;20961;-81
2022/09/11 00:24:40;;;;;;;22.25;17.98;;;;;;;13.39;100.00;98351.69;2249179;78;21277;-81
2022/09/11 00:27:39;;;;;;;25.68;22.98;;;;;;;13.42;100.00;98352.11;2248705;78;21359;-82
2022/09/11 00:30:39;;;;;;;21.65;19.27;;;;;;;13.41;100.00;98350.80;2249097;78;20971;-81
2022/09/11 00:33:40;;;;;;;24.27;21.82;;;;;;;13.41;100.00;98348.19;2248735;79;20919;-81
2022/09/11 00:36:40;;;;;;;23.90;21.40;;;;;;;13.43;100.00;98348.61;2248495;78;20947;-82
2022/09/11 00:39:41;;;;;;;18.73;16.77;;;;;;;13.42;100.00;98350.80;2248452;79;20948;-83
2022/09/11 00:42:41;;;;;;;19.77;16.65;;;;;;;13.41;100.00;98355.61;2248922;78;20947;-82
2022/09/11 00:45:41;;;;;;;24.95;16.80;;;;;;;13.38;100.00;98351.70;2249358;78;20936;-82
2022/09/11 00:48:42;;;;;;;18.27;15.78;;;;;;;13.34;100.00;98352.16;2248358;78;21301;-82
2022/09/11 00:51:42;;;;;;;16.32;14.18;;;;;;;13.28;100.00;98353.52;2248723;78;20912;-81
2022/09/11 00:54:43;;;;;;;21.68;15.25;;;;;;;13.26;100.00;98353.97;2248525;77;20987;-82
2022/09/11 00:57:44;;;;;;;22.73;15.32;;;;;;;13.22;100.00;98362.73;2248725;78;20960;-82
2022/09/11 01:00:43;;;;;;;28.20;14.00;;;;;;;13.18;100.00;98351.84;2248695;79;20947;-82
2022/09/11 01:03:44;;;;;;;38.25;14.90;;;;;;;13.18;100.00;98353.14;2248809;78;20939;-82
2022/09/11 01:06:45;;;;;;;18.45;12.95;;;;;;;13.14;100.00;98347.45;2248418;78;20967;-82
2022/09/11 01:09:45;;;;;;;20.15;14.20;;;;;;;13.11;100.00;98348.79;2248651;79;20900;-82
2022/09/11 01:12:45;;;;;;;19.35;15.40;;;;;;;13.04;100.00;98344.03;2248430;79;20999;-81
2022/09/11 01:15:46;;;;;;;19.30;16.10;;;;;;;13.00;100.00;98344.02;2248907;78;20968;-81
2022/09/11 01:18:46;;;;;;;22.07;16.45;;;;;;;12.98;100.00;98346.65;2249188;78;20952;-81
2022/09/11 01:21:51;;;;;;;24.00;17.80;;;;;;;12.97;100.00;98346.66;2249064;78;21308;-81
2022/09/11 01:24:47;;;;;;;20.95;16.32;;;;;;;12.95;100.00;98344.48;2249497;78;21321;-82
2022/09/11 01:27:49;;;;;;;20.05;16.60;;;;;;;12.92;100.00;98346.69;2249430;79;20931;-82
2022/09/11 01:30:47;;;;;;;19.00;15.90;;;;;;;12.85;100.00;98338.43;2249806;78;21442;-82
2022/09/11 01:33:48;;;;;;;18.52;16.62;;;;;;;12.83;100.00;98330.15;2250063;78;20914;-82
2022/09/11 01:36:48;;;;;;;20.37;15.75;;;;;;;12.79;100.00;98331.91;2250412;78;20916;-82
2022/09/11 01:39:49;;;;;;;18.42;16.52;;;;;;;12.79;100.00;98322.75;2250332;78;20995;-81
2022/09/11 01:42:50;;;;;;;17.42;15.23;;;;;;;12.81;100.00;98329.28;2250504;78;20943;-82
2022/09/11 01:45:49;;;;;;;20.90;16.60;;;;;;;12.83;100.00;98324.91;2250751;78;20888;-82
2022/09/11 01:48:51;;;;;;;37.63;24.52;;;;;;;12.86;100.00;98328.82;2250770;78;20933;-82
2022/09/11 01:51:50;;;;;;;30.92;23.20;;;;;;;12.94;100.00;98330.52;2250824;78;20995;-83
2022/09/11 01:54:51;;;;;;;23.62;20.08;;;;;;;13.01;100.00;98326.14;2250415;77;21375;-82
2022/09/11 01:57:51;;;;;;;23.60;18.60;;;;;;;13.01;100.00;98325.70;2250487;78;20948;-83
2022/09/11 02:00:51;;;;;;;26.25;19.82;;;;;;;12.98;100.00;98324.82;2250193;78;20909;-82
2022/09/11 02:03:52;;;;;;;24.92;18.82;;;;;;;12.97;100.00;98321.33;2250206;78;20940;-82
2022/09/11 02:06:52;;;;;;;23.38;18.98;;;;;;;12.95;100.00;98327.02;2250039;78;20991;-82
2022/09/11 02:09:55;;;;;;;27.48;19.92;;;;;;;12.92;100.00;98323.11;2250318;78;20931;-82
2022/09/11 02:12:57;;;;;;;25.25;19.73;;;;;;;12.92;100.00;98319.62;2249942;78;20935;-82
2022/09/11 02:15:56;;;;;;;24.15;18.65;;;;;;;12.92;100.00;98323.11;2250207;78;20963;-82
2022/09/11 02:18:57;;;;;;;23.60;18.52;;;;;;;12.90;100.00;98325.30;2249938;79;20959;-81
2022/09/11 02:21:57;;;;;;;21.75;17.73;;;;;;;12.86;100.00;98326.20;2249124;79;20963;-82
2022/09/11 02:24:57;;;;;;;25.20;17.92;;;;;;;12.83;100.00;98322.29;2249527;79;20936;-82
2022/09/11 02:27:58;;;;;;;28.95;19.50;;;;;;;12.83;100.00;98318.36;2249269;79;20983;-81
2022/09/11 02:30:58;;;;;;;25.57;18.60;;;;;;;12.81;100.00;98322.30;2249014;79;21398;-82
2022/09/11 02:33:59;;;;;;;29.30;19.32;;;;;;;12.78;100.00;98322.75;2249142;78;20944;-81
2022/09/11 02:36:59;;;;;;;24.55;18.52;;;;;;;12.73;100.00;98311.86;2249413;78;20952;-81
2022/09/11 02:40:00;;;;;;;29.18;19.92;;;;;;;12.70;100.00;98312.32;2249204;79;20956;-81
2022/09/11 02:43:00;;;;;;;31.65;20.27;;;;;;;12.68;100.00;98313.63;2249205;78;20940;-81
2022/09/11 02:46:00;;;;;;;26.20;17.10;;;;;;;12.66;100.00;98313.21;2249599;78;20948;-81
2022/09/11 02:49:01;;;;;;;29.57;19.17;;;;;;;12.69;100.00;98314.50;2249574;78;20935;-81
2022/09/11 02:52:01;;;;;;;27.10;18.77;;;;;;;12.71;100.00;98311.00;2249761;79;21384;-82
2022/09/11 02:55:01;;;;;;;26.97;19.77;;;;;;;12.75;100.00;98310.11;2249392;77;21019;-81
2022/09/11 02:58:02;;;;;;;25.88;17.07;;;;;;;12.79;100.00;98316.64;2249507;78;20971;-81
2022/09/11 03:01:02;;;;;;;25.88;18.05;;;;;;;12.83;100.00;98314.44;2249656;78;21387;-81
2022/09/11 03:04:03;;;;;;;26.87;18.52;;;;;;;12.84;100.00;98314.86;2249540;78;21327;-82
2022/09/11 03:07:03;;;;;;;30.82;19.52;;;;;;;12.88;100.00;98312.66;2249764;78;20940;-80
2022/09/11 03:10:04;;;;;;;26.07;18.70;;;;;;;12.92;100.00;98308.70;2248923;78;20984;-81
2022/09/11 03:13:04;;;;;;;27.35;18.87;;;;;;;12.93;100.00;98307.82;2249374;78;21023;-82
2022/09/11 03:16:04;;;;;;;29.50;19.80;;;;;;;12.96;100.00;98305.62;2249225;79;20964;-81
2022/09/11 03:19:06;;;;;;;30.20;20.17;;;;;;;12.98;100.00;98303.86;2249278;78;20972;-80
2022/09/11 03:22:05;;;;;;;28.07;19.65;;;;;;;12.98;100.00;98303.86;2249239;78;20959;-80
2022/09/11 03:25:06;;;;;;;30.77;20.12;;;;;;;12.96;100.00;98299.07;2248683;78;20940;-80
2022/09/11 03:28:06;;;;;;;29.95;20.68;;;;;;;12.97;100.00;98304.30;2248410;78;20964;-80
2022/09/11 03:31:08;;;;;;;30.55;18.77;;;;;;;12.98;100.00;98310.41;2249129;78;20983;-81
2022/09/11 03:34:07;;;;;;;33.13;20.15;;;;;;;12.95;100.00;98307.81;2248991;78;21608;-80
2022/09/11 03:37:07;;;;;;;29.30;19.85;;;;;;;12.93;100.00;98304.33;2248935;78;20873;-80
2022/09/11 03:40:08;;;;;;;29.23;18.85;;;;;;;12.93;100.00;98309.57;2249041;78;20944;-80
2022/09/11 03:43:08;;;;;;;28.87;19.67;;;;;;;12.91;100.00;98305.66;2248887;79;21276;-82
2022/09/11 03:46:09;;;;;;;27.55;19.67;;;;;;;12.94;100.00;98303.45;2248905;79;20935;-82
2022/09/11 03:49:09;;;;;;;25.52;19.30;;;;;;;12.92;100.00;98300.84;2249198;78;21000;-82
2022/09/11 03:52:10;;;;;;;26.35;18.92;;;;;;;12.92;100.00;98302.59;2249780;78;20959;-83
2022/09/11 03:55:10;;;;;;;26.20;17.75;;;;;;;12.91;100.00;98306.96;2272529;78;20998;-83
2022/09/11 03:58:10;;;;;;;27.37;18.42;;;;;;;12.91;100.00;98297.80;2291796;78;20982;-82
2022/09/11 04:01:11;;;;;;;31.55;20.05;;;;;;;12.94;100.00;98296.91;2291980;78;21325;-82
2022/09/11 04:04:11;;;;;;;25.77;18.15;;;;;;;12.97;100.00;98298.19;2291798;78;20905;-82
2022/09/11 04:07:11;;;;;;;27.93;19.55;;;;;;;12.98;100.00;98292.94;2292193;78;20947;-82
2022/09/11 04:10:12;;;;;;;29.87;20.12;;;;;;;12.99;100.00;98293.81;2291599;78;21308;-82
2022/09/11 04:13:12;;;;;;;30.85;19.95;;;;;;;12.99;100.00;98295.13;2292067;78;20951;-83
2022/09/11 04:16:13;;;;;;;26.97;18.60;;;;;;;12.98;100.00;98293.38;2292093;78;20932;-83
2022/09/11 04:19:13;;;;;;;28.30;18.55;;;;;;;12.98;100.00;98291.63;2291082;78;21007;-83
2022/09/11 04:22:13;;;;;;;26.00;17.65;;;;;;;13.00;100.00;98296.86;2291510;78;20951;-83
2022/09/11 04:25:14;;;;;;;29.45;18.95;;;;;;;13.01;100.00;98294.70;2291570;78;20928;-82
2022/09/11 04:28:14;;;;;;;31.37;18.75;;;;;;;13.03;100.00;98291.64;2292279;78;20971;-82
2022/09/11 04:31:15;;;;;;;36.17;20.32;;;;;;;13.03;100.00;98297.75;2292284;78;20940;-83
2022/09/11 04:34:15;;;;;;;27.37;18.40;;;;;;;13.04;100.00;98294.25;2292270;78;20896;-83
2022/09/11 04:37:15;;;;;;;32.35;19.15;;;;;;;13.04;100.00;98297.30;2291665;78;20920;-82
2022/09/11 04:40:16;;;;;;;29.70;19.52;;;;;;;13.04;100.00;98290.31;2291703;78;21290;-82
2022/09/11 04:43:16;;;;;;;30.37;19.40;;;;;;;13.10;100.00;98297.70;2291913;78;20923;-82
2022/09/11 04:46:17;;;;;;;33.02;18.95;;;;;;;13.11;100.00;98295.52;2291946;78;20955;-83
2022/09/11 04:49:17;;;;;;;29.82;18.73;;;;;;;13.15;100.00;98295.92;2291381;78;20971;-82
2022/09/11 04:52:18;;;;;;;29.77;19.25;;;;;;;13.16;100.00;98293.29;2291544;78;21336;-82
2022/09/11 04:55:18;;;;;;;27.58;19.40;;;;;;;13.19;100.00;98293.30;2286315;78;20993;-82
2022/09/11 04:58:18;;;;;;;28.77;18.02;;;;;;;13.21;100.00;98291.53;2281758;78;20909;-81
2022/09/11 05:01:19;;;;;;;28.17;18.62;;;;;;;13.22;100.00;98295.03;2281808;78;21295;-81
2022/09/11 05:04:19;;;;;;;27.75;18.92;;;;;;;13.23;100.00;98288.91;2281594;78;20894;-80
2022/09/11 05:07:19;;;;;;;29.20;19.30;;;;;;;13.24;100.00;98290.20;2281599;78;20945;-81
2022/09/11 05:10:20;;;;;;;24.07;17.05;;;;;;;13.28;100.00;98287.98;2281063;78;20949;-82
2022/09/11 05:13:20;;;;;;;26.73;19.03;;;;;;;13.34;100.00;98294.49;2280370;78;21361;-82
2022/09/11 05:16:21;;;;;;;25.82;19.25;;;;;;;13.39;100.00;98292.70;2280773;78;20938;-81
2022/09/11 05:19:21;;;;;;;24.60;18.42;;;;;;;13.43;100.00;98291.37;2280041;78;20922;-83
2022/09/11 05:22:22;;;;;;;28.92;17.17;;;;;;;13.44;100.00;98287.42;2280831;78;21302;-81
2022/09/11 05:25:22;;;;;;;22.15;16.35;;;;;;;13.43;100.00;98288.75;2280555;78;20974;-82
2022/09/11 05:28:22;;;;;;;30.25;21.77;;;;;;;13.44;100.00;98286.11;2280046;78;20974;-81
2022/09/11 05:31:24;;;;;;;25.67;19.40;;;;;;;13.44;100.00;98290.05;2280240;78;21349;-82
2022/09/11 05:34:23;;;;;;;25.52;18.55;;;;;;;13.43;100.00;98290.92;2280288;78;20957;-83
2022/09/11 05:37:24;;;;;;;23.87;18.17;;;;;;;13.47;100.00;98287.84;2280088;78;20942;-82
2022/09/11 05:40:24;;;;;;;26.57;18.57;;;;;;;13.49;100.00;98287.38;2280411;78;20930;-82
2022/09/11 05:43:25;;;;;;;26.15;19.80;;;;;;;13.52;100.00;98280.36;2280590;78;21393;-82
2022/09/11 05:46:25;;;;;;;25.62;19.00;;;;;;;13.57;100.00;98282.94;2281137;78;20980;-82
2022/09/11 05:49:25;;;;;;;26.85;20.00;;;;;;;13.60;100.00;98281.16;2279933;78;20973;-81
2022/09/11 05:52:26;;;;;;;27.85;21.55;;;;;;;13.60;100.00;98278.53;2280567;78;20906;-81
2022/09/11 05:55:26;;;;;;;27.73;19.87;;;;;;;13.63;100.00;98290.75;2285542;78;21316;-82
2022/09/11 05:58:26;;;;;;;27.15;20.25;;;;;;;13.66;100.00;98284.17;2291096;78;20984;-82
2022/09/11 06:01:27;;;;;;;27.50;20.92;;;;;;;13.70;100.00;98288.50;2291049;78;20939;-82
2022/09/11 06:04:27;;;;;;;28.40;20.17;;;;;;;13.71;100.00;98286.30;2291124;78;21258;-82
2022/09/11 06:07:27;;;;;;;28.67;20.82;;;;;;;13.72;100.00;98286.73;2290821;78;20924;-82
2022/09/11 06:10:28;;;;;;;26.17;21.70;;;;;;;13.75;100.00;98290.63;2291228;78;20904;-81
2022/09/11 06:13:28;;;;;;;28.62;21.60;;;;;;;13.77;100.00;98284.94;2290838;78;21292;-82
2022/09/11 06:16:30;;;;;;;29.67;23.50;;;;;;;13.84;100.00;98289.23;2290813;78;20944;-81
2022/09/11 06:19:29;;;;;;;27.45;20.62;;;;;;;13.87;100.00;98294.48;2290906;78;20975;-82
2022/09/11 06:22:32;;;;;;;27.35;21.00;;;;;;;13.95;100.00;98303.14;2291331;78;21336;-84
2022/09/11 06:25:31;;;;;;;25.15;19.95;;;;;;;14.03;100.00;98303.94;2291268;78;20956;-83
2022/09/11 06:28:30;;;;;;;21.00;18.77;;;;;;;14.10;100.00;98302.55;2291350;78;20943;-83
2022/09/11 06:31:31;;;;;;;24.12;18.02;;;;;;;14.19;100.00;98295.45;2291784;78;20959;-83
2022/09/11 06:34:31;;;;;;;20.72;18.25;;;;;;;14.25;100.00;98298.00;2291643;78;20904;-83
2022/09/11 06:37:32;;;;;;;21.42;17.75;;;;;;;14.27;100.00;98304.55;2290769;78;21419;-81
2022/09/11 06:40:32;;;;;;;23.07;18.48;;;;;;;14.29;100.00;98302.77;2291337;78;20931;-82
2022/09/11 06:43:32;;;;;;;21.50;18.05;;;;;;;14.30;100.00;98301.89;2291173;78;21296;-84
2022/09/11 06:46:33;;;;;;;23.42;18.77;;;;;;;14.30;100.00;98295.33;2290928;78;21544;-81
2022/09/11 06:49:33;;;;;;;22.07;17.05;;;;;;;14.34;100.00;98295.72;2291052;78;20994;-80
2022/09/11 06:52:34;;;;;;;23.30;17.15;;;;;;;14.39;100.00;98299.16;2290938;78;21006;-82
2022/09/11 06:55:34;;;;;;;21.87;17.55;;;;;;;14.42;100.00;98299.15;2286571;78;20903;-81
2022/09/11 06:58:34;;;;;;;23.30;17.77;;;;;;;14.42;100.00;98299.15;2281246;78;21290;-82
2022/09/11 07:01:35;;;;;;;20.10;17.05;;;;;;;14.44;100.00;98302.63;2280714;78;20924;-82
2022/09/11 07:04:35;;;;;;;22.93;19.57;;;;;;;14.49;100.00;98290.75;2280823;78;20938;-80
2022/09/11 07:07:36;;;;;;;24.47;20.75;;;;;;;14.53;100.00;98299.02;2280704;78;20949;-81
2022/09/11 07:10:36;;;;;;;26.42;20.62;;;;;;;14.50;100.00;98298.61;2280211;78;20945;-81
2022/09/11 07:13:36;;;;;;;28.27;20.57;;;;;;;14.51;100.00;98300.34;2280924;78;20918;-83
2022/09/11 07:16:37;;;;;;;23.40;20.02;;;;;;;14.58;100.00;98296.75;2280894;78;20878;-83
2022/09/11 07:19:37;;;;;;;22.13;18.92;;;;;;;14.70;100.00;98296.17;2280799;78;21404;-83
2022/09/11 07:22:39;;;;;;;24.00;18.23;;;;;;;14.72;100.00;98302.27;2279713;78;20922;-83
2022/09/11 07:25:39;;;;;;;22.62;16.35;;;;;;;14.66;100.00;98294.90;2279570;78;20996;-83
2022/09/11 07:28:39;;;;;;;19.55;16.93;;;;;;;14.70;100.00;98296.17;2280149;78;21318;-82
2022/09/11 07:31:40;;;;;;;20.02;17.52;;;;;;;14.72;100.00;98298.33;2279911;78;21028;-82
2022/09/11 07:34:39;;;;;;;19.10;15.65;;;;;;;14.70;100.00;98293.55;2280117;78;20934;-82
2022/09/11 07:37:40;;;;;;;17.30;15.05;;;;;;;14.58;100.00;98302.01;2280103;78;20922;-82
2022/09/11 07:40:40;;;;;;;17.15;14.10;;;;;;;14.46;100.00;98303.47;2280607;78;20906;-85
2022/09/11 07:43:40;;;;;;;15.55;13.88;;;;;;;14.37;100.00;98307.49;2281594;78;20985;-84
2022/09/11 07:46:41;;;;;;;19.82;14.78;;;;;;;14.35;100.00;98302.70;2281828;78;20938;-86
2022/09/11 07:49:41;;;;;;;16.80;13.98;;;;;;;14.34;100.00;98304.91;2281209;78;21412;-86
2022/09/11 07:52:42;;;;;;;17.00;13.98;;;;;;;14.31;100.00;98309.75;2281721;78;20954;-86
2022/09/11 07:55:42;;;;;;;14.53;12.60;;;;;;;14.32;100.00;98306.23;2268202;78;20952;-86
2022/09/11 07:58:43;;;;;;;14.58;13.03;;;;;;;14.37;100.00;98307.49;2249692;78;20912;-85
2022/09/11 08:01:43;;;;;;;16.67;13.20;;;;;;;14.36;100.00;98312.31;2249543;78;20947;-84
2022/09/11 08:04:43;;;;;;;16.35;13.83;;;;;;;14.34;100.00;98311.47;2249683;78;20971;-85
2022/09/11 08:07:44;;;;;;;14.87;12.63;;;;;;;14.32;100.00;98314.11;2249973;78;20885;-86
2022/09/11 08:10:45;;;;;;;13.30;11.90;;;;;;;14.32;100.00;98315.87;2249639;78;20994;-83
2022/09/11 08:13:45;;;;;;;10.15;9.15;;;;;;;14.34;100.00;98314.09;2249457;78;20955;-85
2022/09/11 08:16:45;;;;;;;8.85;7.30;;;;;;;14.42;100.00;98315.31;2249836;78;20955;-85
2022/09/11 08:19:45;;;;;;;7.53;6.55;;;;;;;14.52;100.00;98323.09;2249565;79;20978;-85
2022/09/11 08:22:46;;;;;;;7.25;6.55;;;;;;;14.64;100.00;98330.83;2249707;78;21311;-86
2022/09/11 08:25:46;;;;;;;8.30;6.22;;;;;;;14.76;100.00;98327.65;2249713;78;20983;-85
2022/09/11 08:28:47;;;;;;;6.53;5.92;;;;;;;14.92;100.00;98330.49;2249789;79;20952;-84
2022/09/11 08:31:47;;;;;;;9.23;6.40;;;;;;;15.05;100.00;98327.25;2249470;78;21328;-83
2022/09/11 08:34:47;;;;;;;6.60;6.00;;;;;;;15.12;100.00;98331.08;2248871;78;20971;-84
2022/09/11 08:37:48;;;;;;;7.30;6.70;;;;;;;15.15;100.00;98336.30;2248556;79;21297;-84
2022/09/11 08:40:48;;;;;;;7.17;6.47;;;;;;;15.12;100.00;98332.39;2247950;78;20937;-84
2022/09/11 08:43:49;;;;;;;6.60;6.00;;;;;;;15.10;100.00;98330.23;2249543;79;20982;-85
2022/09/11 08:46:49;;;;;;;7.17;6.58;;;;;;;15.09;100.00;98340.33;2248915;78;21332;-84
2022/09/11 08:49:49;;;;;;;8.30;6.60;;;;;;;15.06;100.00;98333.80;2248709;79;21042;-83
2022/09/11 08:52:50;;;;;;;5.95;5.35;;;;;;;15.10;100.00;98336.80;2249111;78;20960;-85
2022/09/11 08:55:50;;;;;;;6.05;5.45;;;;;;;15.15;100.00;98335.42;2265025;77;21004;-83
2022/09/11 08:58:51;;;;;;;6.62;5.37;;;;;;;15.18;99.59;98337.56;2290687;78;20948;-82
2022/09/11 09:01:51;;;;;;;5.78;5.20;;;;;;;15.24;98.99;98332.22;2291469;78;20920;-83
2022/09/11 09:04:51;;;;;;;6.12;5.60;;;;;;;15.24;98.65;98337.47;2291503;78;21347;-83
2022/09/11 09:07:52;;;;;;;5.80;5.30;;;;;;;15.24;98.71;98338.78;2291368;78;20984;-84
2022/09/11 09:10:52;;;;;;;5.58;5.15;;;;;;;15.18;98.88;98343.27;2291545;78;20971;-83
2022/09/11 09:13:53;;;;;;;6.10;5.50;;;;;;;15.15;99.65;98339.37;2292086;78;20929;-83
2022/09/11 09:16:53;;;;;;;5.87;4.87;;;;;;;15.14;99.54;98334.55;2291938;78;20905;-84
2022/09/11 09:19:53;;;;;;;6.03;5.42;;;;;;;15.14;99.27;98330.61;2291921;78;20975;-84
2022/09/11 09:22:54;;;;;;;5.40;5.00;;;;;;;15.09;98.46;98331.13;2291955;78;20893;-84
2022/09/11 09:25:55;;;;;;;6.87;5.62;;;;;;;15.03;98.84;98335.16;2292014;78;20971;-83
2022/09/11 09:28:55;;;;;;;6.78;6.17;;;;;;;15.01;99.34;98325.11;2291604;78;20947;-83
2022/09/11 09:31:55;;;;;;;6.55;5.92;;;;;;;15.11;100.00;98326.72;2291811;78;20967;-83
2022/09/11 09:34:56;;;;;;;7.55;5.62;;;;;;;15.17;99.03;98326.63;2291559;78;20940;-84
2022/09/11 09:37:56;;;;;;;5.60;5.10;;;;;;;15.23;98.34;98325.22;2291498;78;20971;-83
2022/09/11 09:40:56;;;;;;;5.42;4.97;;;;;;;15.24;99.12;98322.14;2291456;78;21284;-83
2022/09/11 09:43:57;;;;;;;4.95;4.55;;;;;;;15.14;98.98;98320.09;2291787;78;20924;-83
2022/09/11 09:46:58;;;;;;;4.47;4.08;;;;;;;15.18;99.41;98317.84;2291675;78;20959;-83
2022/09/11 09:49:58;;;;;;;4.83;4.42;;;;;;;15.35;98.32;98311.46;2291108;78;21414;-82
2022/09/11 09:52:58;;;;;;;4.03;3.62;;;;;;;15.41;98.63;98316.17;2291504;78;20968;-83
2022/09/11 09:55:58;;;;;;;4.25;3.30;;;;;;;15.44;97.80;98316.13;2288186;78;20962;-83
2022/09/11 09:58:59;;;;;;;4.37;3.98;;;;;;;15.50;98.19;98319.11;2281561;78;20981;-81
2022/09/11 10:01:59;;;;;;;3.65;3.37;;;;;;;15.62;98.11;98315.02;2281700;77;21338;-83
2022/09/11 10:05:00;;;;;;;5.83;4.00;;;;;;;15.82;97.04;98306.34;2281306;77;20922;-83
2022/09/11 10:08:01;;;;;;;3.65;3.35;;;;;;;15.88;96.66;98305.36;2281762;78;20899;-82
2022/09/11 10:11:00;;;;;;;3.47;3.17;;;;;;;15.88;96.60;98311.94;2281559;78;20970;-84
2022/09/11 10:14:01;;;;;;;3.02;2.83;;;;;;;15.87;97.13;98316.34;2281304;78;21306;-83
2022/09/11 10:17:01;;;;;;;3.77;3.47;;;;;;;15.83;95.47;98309.84;2281320;78;20965;-81
2022/09/11 10:20:02;;;;;;;4.47;3.60;;;;;;;15.72;96.29;98318.37;2280613;78;21382;-83
2022/09/11 10:23:02;;;;;;;3.40;3.20;;;;;;;15.73;97.56;98310.89;2281074;78;20918;-83
2022/09/11 10:26:03;;;;;;;3.87;3.47;;;;;;;15.67;97.52;98317.13;2281236;77;20905;-82
2022/09/11 10:29:03;;;;;;;4.15;2.95;;;;;;;15.61;98.09;98314.60;2281065;78;21005;-83
2022/09/11 10:32:04;;;;;;;3.08;2.80;;;;;;;15.46;98.58;98322.67;2281101;77;20950;-84
2022/09/11 10:35:04;;;;;;;2.90;2.70;;;;;;;15.42;99.17;98319.23;2280896;78;20926;-82
2022/09/11 10:38:04;;;;;;;4.90;4.40;;;;;;;15.41;98.81;98317.49;2281072;78;21010;-82
2022/09/11 10:41:06;;;;;;;5.55;3.33;;;;;;;15.42;99.67;98311.78;2281111;78;21332;-82
2022/09/11 10:44:06;;;;;;;5.70;5.05;;;;;;;15.31;99.89;98321.16;2280660;78;21014;-83
2022/09/11 10:47:06;;;;;;;4.70;4.30;;;;;;;15.23;100.00;98312.08;2280965;77;20950;-83
2022/09/11 10:50:06;;;;;;;4.37;4.00;;;;;;;15.23;100.00;98310.76;2280728;78;21374;-83
2022/09/11 10:53:07;;;;;;;5.67;5.12;;;;;;;15.27;100.00;98308.50;2280996;78;20997;-83
2022/09/11 10:56:07;;;;;;;5.83;5.30;;;;;;;15.33;100.00;98300.97;2271509;77;21030;-84
2022/09/11 10:59:08;;;;;;;8.45;5.50;;;;;;;15.41;100.00;98301.71;2248637;78;21285;-83
2022/09/11 11:02:10;;;;;;;6.37;5.78;;;;;;;15.45;99.52;98304.72;2248898;78;20962;-84
2022/09/11 11:05:09;;;;;;;6.47;5.87;;;;;;;15.39;100.00;98307.89;2248939;78;20971;-83
2022/09/11 11:08:11;;;;;;;12.75;8.83;;;;;;;15.28;100.00;98304.98;2248990;79;20908;-85
2022/09/11 11:11:13;;;;;;;10.60;8.43;;;;;;;15.18;100.00;98306.46;2249191;79;20967;-87
2022/09/11 11:14:10;;;;;;;12.68;6.45;;;;;;;15.08;100.00;98320.19;2248576;78;21328;-87
2022/09/11 11:17:10;;;;;;;3.85;3.45;;;;;;;14.95;100.00;98337.02;2248985;78;20951;-87
2022/09/11 11:20:11;;;;;;;3.98;3.17;;;;;;;14.97;100.00;98326.05;2248839;78;21324;-86
2022/09/11 11:23:11;;;;;;;3.02;2.20;;;;;;;15.24;99.99;98332.66;2249572;78;20884;-86
2022/09/11 11:26:11;;;;;;;2.50;2.30;;;;;;;15.47;96.24;98324.41;2249078;78;20968;-86
2022/09/11 11:29:13;;;;;;;2.35;2.25;;;;;;;15.61;96.43;98326.44;2249302;78;20959;-85
2022/09/11 11:32:12;;;;;;;2.15;2.05;;;;;;;15.69;96.14;98330.27;2249181;78;21019;-85
2022/09/11 11:35:13;;;;;;;2.20;2.10;;;;;;;15.68;96.63;98335.97;2249633;79;21272;-86
2022/09/11 11:38:15;;;;;;;4.62;2.90;;;;;;;15.63;96.62;98332.99;2226855;79;20960;-87
2022/09/11 11:41:18;;;;;;;3.12;2.42;;;;;;;15.50;96.38;98328.31;2215390;80;20998;-86
2022/09/11 11:44:18;;;;;;;4.55;3.08;;;;;;;15.52;96.14;98340.55;2243108;79;20935;-86
2022/09/11 11:47:24;;;;;;;4.20;2.65;;;;;;;15.48;96.31;98344.56;2249272;78;21014;-84
2022/09/11 11:50:21;;;;;;;3.15;2.42;;;;;;;15.64;96.27;98334.28;2227054;79;20983;-85
2022/09/11 11:53:21;;;;;;;3.00;2.70;;;;;;;15.84;96.49;98340.52;2249303;78;21017;-85
2022/09/11 11:56:22;;;;;;;3.12;2.83;;;;;;;15.86;95.15;98342.23;2249234;77;21351;-85
2022/09/11 11:59:22;;;;;;;3.65;3.35;;;;;;;15.95;95.48;98342.52;2249592;78;20971;-84
2022/09/11 12:02:23;;;;;;;3.65;3.27;;;;;;;15.98;95.51;98352.13;2249204;78;21328;-86
2022/09/11 12:05:23;;;;;;;3.50;2.90;;;;;;;16.15;95.23;98346.11;2249281;78;21316;-83
2022/09/11 12:08:23;;;;;;;6.65;4.55;;;;;;;16.37;95.15;98339.54;2249260;78;21308;-83
2022/09/11 12:11:24;;;;;;;4.25;3.85;;;;;;;16.61;94.91;98343.94;2249126;78;20972;-84
2022/09/11 12:14:25;;;;;;;4.05;3.42;;;;;;;16.99;97.01;98343.16;2248944;78;20980;-82
2022/09/11 12:17:25;;;;;;;4.17;3.50;;;;;;;17.13;92.81;98343.28;2248784;78;20959;-83
2022/09/11 12:20:25;;;;;;;3.70;3.20;;;;;;;17.17;91.80;98344.94;2247869;78;20999;-81
2022/09/11 12:23:26;;;;;;;3.95;3.55;;;;;;;17.14;90.96;98348.97;2247884;78;20991;-81
2022/09/11 12:26:26;;;;;;;3.40;3.10;;;;;;;17.26;91.46;98340.36;2247868;79;20943;-82
2022/09/11 12:29:26;;;;;;;3.45;3.10;;;;;;;17.45;91.49;98340.38;2247850;78;21446;-81
2022/09/11 12:32:27;;;;;;;3.17;2.87;;;;;;;17.57;88.23;98341.41;2247789;79;20984;-81
2022/09/11 12:35:27;;;;;;;3.33;3.02;;;;;;;17.53;88.90;98345.48;2248642;78;20943;-80
2022/09/11 12:38:27;;;;;;;3.55;3.25;;;;;;;17.36;89.24;98341.92;2248720;79;21317;-82
2022/09/11 12:41:29;;;;;;;3.80;3.50;;;;;;;17.10;89.55;98344.66;2248981;78;20948;-80
2022/09/11 12:44:29;;;;;;;3.35;3.08;;;;;;;16.91;90.60;98343.33;2248791;78;20952;-80
2022/09/11 12:47:30;;;;;;;4.53;3.60;;;;;;;16.63;91.75;98339.50;2248811;78;20976;-81
2022/09/11 12:50:32;;;;;;;3.67;3.42;;;;;;;16.37;92.01;98335.59;2248500;78;21003;-81
2022/09/11 12:53:32;;;;;;;5.97;3.98;;;;;;;16.15;93.16;98340.39;2248777;78;21276;-81
2022/09/11 12:56:35;;;;;;;4.55;4.15;;;;;;;16.01;93.08;98339.78;2257525;77;21025;-79
2022/09/11 12:59:39;;;;;;;6.53;4.30;;;;;;;16.04;93.29;98339.73;2280863;77;21016;-81
2022/09/11 13:02:36;;;;;;;8.20;4.35;;;;;;;16.10;93.44;98344.02;2279816;78;21286;-80
2022/09/11 13:05:37;;;;;;;4.72;4.15;;;;;;;16.06;94.51;98340.56;2280790;78;20954;-80
2022/09/11 13:08:37;;;;;;;4.87;4.47;;;;;;;16.08;94.94;98332.64;2281036;77;21001;-80
2022/09/11 13:11:38;;;;;;;5.53;5.10;;;;;;;16.09;95.12;98343.59;2281288;77;20970;-80
2022/09/11 13:14:38;;;;;;;5.78;5.28;;;;;;;16.00;91.75;98347.70;2281085;78;21397;-80
2022/09/11 13:17:38;;;;;;;5.10;4.70;;;;;;;15.96;92.53;98346.89;2281371;78;20946;-80
2022/09/11 13:20:39;;;;;;;6.00;5.40;;;;;;;16.00;91.63;98345.07;2281074;78;20957;-81
2022/09/11 13:23:41;;;;;;;5.80;5.20;;;;;;;16.06;89.60;98350.23;2259395;78;20937;-80
2022/09/11 13:26:42;;;;;;;5.20;4.80;;;;;;;16.13;87.96;98356.67;2281211;78;20977;-80
2022/09/11 13:29:42;;;;;;;6.22;5.62;;;;;;;16.30;86.89;98355.05;2280577;78;20903;-81
2022/09/11 13:32:42;;;;;;;5.33;4.83;;;;;;;16.55;84.55;98355.47;2280531;78;21326;-80
2022/09/11 13:35:43;;;;;;;6.28;5.67;;;;;;;16.64;83.75;98347.83;2280701;78;21041;-80
2022/09/11 13:38:43;;;;;;;5.45;4.95;;;;;;;16.70;84.20;98355.19;2280967;78;20895;-80
2022/09/11 13:41:43;;;;;;;5.40;4.90;;;;;;;16.76;82.43;98356.84;2281096;78;20907;-79
2022/09/11 13:44:45;;;;;;;5.55;5.05;;;;;;;16.89;83.23;98351.72;2281379;78;20911;-81
2022/09/11 13:47:44;;;;;;;6.33;5.83;;;;;;;17.06;82.41;98340.81;2280068;78;21389;-80